Ferry Tsurugi — JI3553 — position and weather

sailwx.info

Track history (hours):
 
Tides and Currents Weather Stations Pressure Air Temp Water Temp Dewpoint Dewpoint Depression Visibility Wind Speed Wind Dir Waves Ship Positions

Ferry Tsurugi

Last reported at 2018-Jul-18 00:30 UTC. Time now 2018-Jul-18 00:54 UTC.
Position N 34°10' E 135°00'.

Length 108 m; draft 4 m.

Type: Passenger vessel. MMSI: 431500658.

Date/timePositionNaut miles runAvg speedWind from/ knotsBaromVisibWave heightAir tempDewpointWater temp
2018-Jul-18 00:30N 34°10' E 135°00'815.4
2018-Jul-18 00:00N 34°08' E 134°51'12 7.2
2018-Jul-17 22:17N 34°03' E 134°37'516.2
2018-Jul-17 21:59N 34°05' E 134°43'816.4
2018-Jul-17 21:30N 34°07' E 134°52'917.3
2018-Jul-17 21:00N 34°11' E 135°02'612.5
2018-Jul-17 20:30N 34°13' E 135°09'1 1.5
2018-Jul-17 20:00N 34°13' E 135°08'815.1
2018-Jul-17 19:30N 34°10' E 134°59'815.2
2018-Jul-17 19:00N 34°07' E 134°51'4 0.8
2018-Jul-17 14:03N 34°06' E 134°46'114.4
2018-Jul-17 14:00N 34°07' E 134°47'715.1
2018-Jul-17 13:31N 34°10' E 134°55'715.0
2018-Jul-17 13:01N 34°13' E 135°03'5 9.2
2018-Jul-17 12:31N 34°13' E 135°09'0 0.0
2018-Jul-17 12:01N 34°13' E 135°09'814.3
2018-Jul-17 11:29N 34°11' E 134°60'714.2
2018-Jul-17 11:00N 34°09' E 134°52'6 2.5
2018-Jul-17 08:44N 34°06' E 134°46'415.9
2018-Jul-17 08:30N 34°07' E 134°50'816.6
2018-Jul-17 08:00N 34°10' E 134°60'714.8
2018-Jul-17 07:30N 34°13' E 135°08'1 1.4
2018-Jul-17 07:00N 34°13' E 135°09'1 1.0
2018-Jul-17 06:30N 34°13' E 135°08'714.3
2018-Jul-17 06:00N 34°09' E 135°00'714.6
2018-Jul-17 05:30N 34°08' E 134°52'5 2.1
2018-Jul-17 03:01N 34°06' E 134°46'014.6
2018-Jul-17 03:01N 34°06' E 134°46'714.6
2018-Jul-17 02:31N 34°09' E 134°54'714.6
2018-Jul-17 02:01N 34°12' E 135°02'510.7
2018-Jul-17 01:30N 34°13' E 135°09'0 0.7
2018-Jul-17 01:01N 34°13' E 135°08'714.4
2018-Jul-17 00:30N 34°10' E 135°00'12 4.6
2018-Jul-16 21:52N 34°07' E 134°46'615.5
2018-Jul-16 21:30N 34°08' E 134°53'816.3
2018-Jul-16 21:00N 34°11' E 135°02'612.2
2018-Jul-16 20:30N 34°13' E 135°09'0 0.5
2018-Jul-16 20:00N 34°13' E 135°08'714.6
2018-Jul-16 19:30N 34°10' E 135°00'814.9
2018-Jul-16 18:58N 34°07' E 134°51'9 1.9
2018-Jul-16 14:24N 34°05' E 134°41'613.6
2018-Jul-16 13:59N 34°07' E 134°47'714.5
2018-Jul-16 13:30N 34°10' E 134°55'714.4
2018-Jul-16 13:00N 34°12' E 135°03'4 9.0
2018-Jul-16 12:30N 34°13' E 135°09'0 0.1
2018-Jul-16 12:01N 34°13' E 135°09'713.9
2018-Jul-16 11:30N 34°12' E 135°00'815.3
2018-Jul-16 10:59N 34°08' E 134°51'8 3.6
2018-Jul-16 08:53N 34°05' E 134°43'615.5
2018-Jul-16 08:30N 34°07' E 134°50'816.0
2018-Jul-16 08:00N 34°10' E 134°59'815.4
2018-Jul-16 07:30N 34°13' E 135°08'1 1.8
2018-Jul-16 07:00N 34°13' E 135°09'0 0.6
2018-Jul-16 06:31N 34°13' E 135°08'815.0
2018-Jul-16 06:00N 34°10' E 134°60'815.3
2018-Jul-16 05:30N 34°07' E 134°51'9 4.5
2018-Jul-16 03:24N 34°04' E 134°40'714.1
2018-Jul-16 02:55N 34°07' E 134°48'614.2
2018-Jul-16 02:30N 34°09' E 134°54'714.4
2018-Jul-16 02:00N 34°12' E 135°02'510.6
2018-Jul-16 01:30N 34°13' E 135°09'0 0.8
2018-Jul-16 01:00N 34°13' E 135°08'714.5
2018-Jul-16 00:30N 34°11' E 134°60'815.7
2018-Jul-15 23:59N 34°07' E 134°51'9 5.0
2018-Jul-15 22:10N 34°04' E 134°41'315.5
2018-Jul-15 21:59N 34°05' E 134°44'815.9
2018-Jul-15 21:30N 34°08' E 134°52'816.7
2018-Jul-15 21:00N 34°11' E 135°02'612.1
2018-Jul-15 20:30N 34°13' E 135°09'0 0.1
2018-Jul-15 20:01N 34°13' E 135°09'713.8
2018-Jul-15 19:30N 34°11' E 135°01'815.0
2018-Jul-15 19:00N 34°08' E 134°52'7 1.4
2018-Jul-15 14:13N 34°06' E 134°44'313.9
2018-Jul-15 13:59N 34°08' E 134°47'714.2
2018-Jul-15 13:30N 34°10' E 134°55'714.3
2018-Jul-15 13:00N 34°12' E 135°03'5 9.0
2018-Jul-15 12:30N 34°13' E 135°09'0 0.1
2018-Jul-15 12:01N 34°13' E 135°09'713.3
2018-Jul-15 11:30N 34°11' E 135°01'815.3
2018-Jul-15 11:00N 34°08' E 134°52'15 8.4
2018-Jul-15 09:16N 34°03' E 134°36'915.3
2018-Jul-15 08:41N 34°06' E 134°46'315.7
2018-Jul-15 08:30N 34°07' E 134°49'816.8
2018-Jul-15 08:01N 34°10' E 134°59'815.9
2018-Jul-15 07:31N 34°13' E 135°08'1 1.5
2018-Jul-15 06:59N 34°13' E 135°09'0 0.1
2018-Jul-15 06:30N 34°13' E 135°09'714.2
2018-Jul-15 06:00N 34°10' E 135°01'815.1
2018-Jul-15 05:30N 34°08' E 134°52'7 2.8
2018-Jul-15 03:09N 34°05' E 134°45'213.9
2018-Jul-15 03:00N 34°05' E 134°47'714.2
2018-Jul-15 02:30N 34°10' E 134°54'714.2
2018-Jul-15 02:00N 34°12' E 135°02'611.2
2018-Jul-15 01:30N 34°13' E 135°09'0 0.4
2018-Jul-15 01:00N 34°13' E 135°08'714.9
2018-Jul-15 00:30N 34°11' E 134°60'916.5
2018-Jul-14 23:59N 34°07' E 134°50'816.2
2018-Jul-14 23:30N 34°04' E 134°41'4 3.7
2018-Jul-14 22:25N 34°03' E 134°37'815.7
2018-Jul-14 21:56N 34°06' E 134°45'715.5
2018-Jul-14 21:30N 34°08' E 134°53'815.9
2018-Jul-14 21:01N 34°11' E 135°02'611.8
2018-Jul-14 20:30N 34°13' E 135°09'0 0.3
2018-Jul-14 20:01N 34°13' E 135°08'714.2
2018-Jul-14 19:30N 34°12' E 135°00'714.5
2018-Jul-14 19:00N 34°09' E 134°52'10 2.1
2018-Jul-14 14:27N 34°05' E 134°41'1314.2
2018-Jul-14 13:31N 34°11' E 134°56'713.5
2018-Jul-14 13:01N 34°12' E 135°04'4 7.9
2018-Jul-14 12:29N 34°13' E 135°09'0 0.1
2018-Jul-14 12:00N 34°13' E 135°09'713.3
2018-Jul-14 11:30N 34°12' E 135°01'815.7
2018-Jul-14 11:00N 34°09' E 134°52'6 2.7
2018-Jul-14 08:45N 34°06' E 134°46'414.9
2018-Jul-14 08:30N 34°07' E 134°50'816.5
2018-Jul-14 08:00N 34°11' E 134°58'815.4
2018-Jul-14 07:30N 34°13' E 135°07'1 2.0
2018-Jul-14 07:00N 34°13' E 135°09'0 0.7
2018-Jul-14 06:30N 34°13' E 135°08'815.0
2018-Jul-14 06:00N 34°10' E 134°60'713.8
2018-Jul-14 05:30N 34°08' E 134°52'6 2.4
2018-Jul-14 03:05N 34°05' E 134°45'214.3
2018-Jul-14 02:57N 34°06' E 134°47'614.3
2018-Jul-14 02:30N 34°09' E 134°55'714.9
2018-Jul-14 02:00N 34°12' E 135°03'510.0
2018-Jul-14 01:30N 34°13' E 135°09'0 0.4
2018-Jul-14 01:00N 34°13' E 135°08'714.8
2018-Jul-14 00:30N 34°11' E 134°60'816.2
2018-Jul-13 23:59N 34°07' E 134°50'7 3.5
2018-Jul-13 22:04N 34°05' E 134°43'216.4
2018-Jul-13 21:55N 34°06' E 134°45'715.9
2018-Jul-13 21:30N 34°08' E 134°53'816.0
2018-Jul-13 21:00N 34°11' E 135°02'611.8
2018-Jul-13 20:30N 34°13' E 135°09'0 0.4
2018-Jul-13 20:00N 34°13' E 135°08'713.8
2018-Jul-13 19:31N 34°11' E 135°01'715.0
2018-Jul-13 19:01N 34°08' E 134°52'4 0.7
2018-Jul-13 14:00N 34°07' E 134°48'714.4
2018-Jul-13 13:30N 34°11' E 134°55'713.4
2018-Jul-13 13:00N 34°12' E 135°03'5 9.0
2018-Jul-13 12:30N 34°13' E 135°09'0 0.0
2018-Jul-13 12:01N 34°13' E 135°09'713.3
2018-Jul-13 11:30N 34°12' E 135°01'816.0
2018-Jul-13 11:00N 34°08' E 134°52'6 2.5
2018-Jul-13 08:44N 34°06' E 134°46'314.3
2018-Jul-13 08:30N 34°08' E 134°49'816.7
2018-Jul-13 08:00N 34°11' E 134°58'816.2
2018-Jul-13 07:30N 34°13' E 135°08'1 1.4
2018-Jul-13 07:00N 34°13' E 135°09'1 1.0
2018-Jul-13 06:31N 34°13' E 135°08'714.5
2018-Jul-13 06:00N 34°10' E 134°60'713.9
2018-Jul-13 05:31N 34°07' E 134°52'6 2.6
2018-Jul-13 03:10N 34°05' E 134°45'416.0
2018-Jul-13 02:56N 34°06' E 134°49'716.1
2018-Jul-13 02:30N 34°09' E 134°57'816.6
2018-Jul-13 02:00N 34°12' E 135°06'2 4.1
2018-Jul-13 01:30N 34°13' E 135°09'0 0.3
2018-Jul-13 01:01N 34°13' E 135°08'714.0
2018-Jul-13 00:31N 34°10' E 135°01'816.5
2018-Jul-13 00:00N 34°07' E 134°51'8 4.0
2018-Jul-12 22:04N 34°05' E 134°42'215.7
2018-Jul-12 21:55N 34°05' E 134°45'615.9
2018-Jul-12 21:30N 34°08' E 134°52'816.0
2018-Jul-12 21:00N 34°11' E 135°01'612.7
2018-Jul-12 20:30N 34°13' E 135°09'0 0.9
2018-Jul-12 20:01N 34°13' E 135°08'714.0
2018-Jul-12 19:30N 34°10' E 135°00'714.2
2018-Jul-12 19:01N 34°08' E 134°52'1415.4
2018-Jul-12 18:08N 34°03' E 134°37'6 1.5
2018-Jul-12 14:18N 34°06' E 134°43'513.9
2018-Jul-12 13:58N 34°07' E 134°48'714.3
2018-Jul-12 13:30N 34°11' E 134°55'714.2
2018-Jul-12 13:00N 34°12' E 135°03'4 8.7
2018-Jul-12 12:30N 34°13' E 135°09'0 0.1
2018-Jul-12 12:00N 34°13' E 135°09'612.4
2018-Jul-12 11:31N 34°12' E 135°01'815.2
2018-Jul-12 11:01N 34°09' E 134°53'6 2.6
2018-Jul-12 08:41N 34°06' E 134°46'315.1
2018-Jul-12 08:30N 34°07' E 134°49'816.8
2018-Jul-12 08:00N 34°10' E 134°58'816.2
2018-Jul-12 07:30N 34°13' E 135°07'1 1.9
2018-Jul-12 07:00N 34°13' E 135°09'1 1.1
2018-Jul-12 06:30N 34°13' E 135°08'714.4
2018-Jul-12 06:00N 34°10' E 134°60'713.9
2018-Jul-12 05:30N 34°07' E 134°52'7 2.7
2018-Jul-12 03:06N 34°05' E 134°45'213.9
2018-Jul-12 02:58N 34°05' E 134°47'714.3
2018-Jul-12 02:30N 34°08' E 134°55'815.2
2018-Jul-12 02:00N 34°11' E 135°03'510.5
2018-Jul-12 01:31N 34°13' E 135°09'0 0.7
2018-Jul-12 01:00N 34°13' E 135°08'714.9
2018-Jul-12 00:30N 34°10' E 135°00'916.4
2018-Jul-11 23:57N 34°07' E 134°50'3 1.5
2018-Jul-11 21:53N 34°06' E 134°46'715.6
2018-Jul-11 21:27N 34°09' E 134°54'715.6
2018-Jul-11 21:00N 34°11' E 135°01'612.6
2018-Jul-11 20:30N 34°13' E 135°09'1 2.9
2018-Jul-11 20:00N 34°13' E 135°07'714.5
2018-Jul-11 19:30N 34°09' E 134°60'814.5
2018-Jul-11 18:57N 34°07' E 134°50'2 0.4
2018-Jul-11 13:59N 34°07' E 134°48'714.1
2018-Jul-11 13:30N 34°09' E 134°55'714.2
2018-Jul-11 13:00N 34°12' E 135°03'5 9.0
2018-Jul-11 12:30N 34°13' E 135°09'0 0.6
2018-Jul-11 12:01N 34°13' E 135°08'714.6
2018-Jul-11 11:31N 34°10' E 135°00'815.7
2018-Jul-11 11:00N 34°06' E 134°52'5 2.2
2018-Jul-11 08:42N 34°07' E 134°46'314.9
2018-Jul-11 08:30N 34°08' E 134°50'815.5
2018-Jul-11 08:00N 34°12' E 134°58'815.6
2018-Jul-11 07:30N 34°13' E 135°08'1 1.8
2018-Jul-11 07:00N 34°13' E 135°09'1 1.2
2018-Jul-11 06:30N 34°13' E 135°08'714.4
2018-Jul-11 06:00N 34°09' E 135°00'814.9
2018-Jul-11 05:29N 34°05' E 134°52'4 1.7
2018-Jul-11 03:00N 34°05' E 134°47'714.2
2018-Jul-11 02:30N 34°06' E 134°55'815.1
2018-Jul-11 02:00N 34°11' E 135°02'510.8
2018-Jul-11 01:30N 34°13' E 135°09'1 1.2
2018-Jul-11 01:01N 34°13' E 135°08'714.8
2018-Jul-11 00:30N 34°09' E 135°00'1015.5
2018-Jul-10 23:52N 34°05' E 134°49'4 1.7
2018-Jul-10 21:49N 34°07' E 134°46'516.5
2018-Jul-10 21:30N 34°08' E 134°52'816.2
2018-Jul-10 21:00N 34°11' E 135°01'612.5
2018-Jul-10 20:30N 34°13' E 135°09'1 1.7
2018-Jul-10 20:00N 34°13' E 135°08'714.5
2018-Jul-10 19:30N 34°11' E 134°59'915.1
2018-Jul-10 18:54N 34°06' E 134°50'6 1.3
2018-Jul-10 14:17N 34°05' E 134°43'414.0
2018-Jul-10 14:00N 34°06' E 134°48'714.4
2018-Jul-10 13:30N 34°09' E 134°55'714.6
2018-Jul-10 13:00N 34°12' E 135°03'4 8.7
2018-Jul-10 12:30N 34°13' E 135°09'0 0.0
2018-Jul-10 12:00N 34°13' E 135°09'612.9
2018-Jul-10 11:30N 34°10' E 135°02'916.5
2018-Jul-10 10:58N 34°05' E 134°53'8 3.7
2018-Jul-10 08:55N 34°05' E 134°43'715.3
2018-Jul-10 08:26N 34°07' E 134°52'715.2
2018-Jul-10 08:00N 34°11' E 134°59'815.2
2018-Jul-10 07:30N 34°13' E 135°08'1 1.5
2018-Jul-10 07:00N 34°13' E 135°09'0 0.9
2018-Jul-10 06:31N 34°13' E 135°08'714.5
2018-Jul-10 06:00N 34°11' E 134°60'714.1
2018-Jul-10 05:30N 34°07' E 134°52'4 1.5
2018-Jul-10 02:55N 34°07' E 134°48'613.9
2018-Jul-10 02:30N 34°10' E 134°54'714.5
2018-Jul-10 02:00N 34°12' E 135°03'510.3
2018-Jul-10 01:30N 34°13' E 135°09'1 1.8
2018-Jul-10 01:00N 34°13' E 135°08'815.5
2018-Jul-10 00:30N 34°10' E 134°59'815.7
2018-Jul-09 23:59N 34°06' E 134°50'5 2.8
2018-Jul-09 22:03N 34°06' E 134°44'316.1
2018-Jul-09 21:50N 34°06' E 134°48'515.9
2018-Jul-09 21:29N 34°08' E 134°54'815.6
2018-Jul-09 21:00N 34°12' E 135°02'611.5
2018-Jul-09 20:30N 34°13' E 135°09'1 1.7
2018-Jul-09 20:01N 34°13' E 135°08'714.4
2018-Jul-09 19:31N 34°10' E 134°60'915.0
2018-Jul-09 18:55N 34°06' E 134°50'3 0.7
2018-Jul-09 14:07N 34°06' E 134°46'213.8
2018-Jul-09 13:58N 34°07' E 134°49'613.6
2018-Jul-09 13:30N 34°09' E 134°56'714.6
2018-Jul-09 13:01N 34°12' E 135°04'4 8.7
2018-Jul-09 12:30N 34°13' E 135°09'0 0.0
2018-Jul-09 12:00N 34°13' E 135°09'611.2
2018-Jul-09 11:31N 34°11' E 135°02'816.3
2018-Jul-09 10:59N 34°08' E 134°53'8 3.6
2018-Jul-09 08:51N 34°06' E 134°44'515.1
2018-Jul-09 08:30N 34°08' E 134°50'815.6
2018-Jul-09 08:00N 34°11' E 134°58'815.2
2018-Jul-09 07:31N 34°13' E 135°07'1 2.3
2018-Jul-09 07:00N 34°13' E 135°09'0 0.7
2018-Jul-09 06:31N 34°13' E 135°08'815.0
2018-Jul-09 06:00N 34°11' E 134°59'814.9
2018-Jul-09 05:29N 34°08' E 134°51'3 1.1
2018-Jul-09 02:55N 34°07' E 134°48'614.5
2018-Jul-09 02:30N 34°09' E 134°54'714.6
2018-Jul-09 02:00N 34°11' E 135°03'510.5
2018-Jul-09 01:30N 34°13' E 135°09'0 0.5
2018-Jul-09 01:00N 34°13' E 135°08'814.9
2018-Jul-09 00:30N 34°10' E 134°60'915.9
2018-Jul-08 23:57N 34°07' E 134°50'3 1.6
2018-Jul-08 21:51N 34°06' E 134°46'616.3
2018-Jul-08 21:29N 34°08' E 134°53'816.0
2018-Jul-08 21:01N 34°11' E 135°01'612.7
2018-Jul-08 20:30N 34°13' E 135°09'0 0.4
2018-Jul-08 20:00N 34°13' E 135°08'714.2
2018-Jul-08 19:30N 34°12' E 134°60'815.8
2018-Jul-08 18:58N 34°08' E 134°50'3 0.6
2018-Jul-08 13:58N 34°07' E 134°48'714.5
2018-Jul-08 13:30N 34°09' E 134°55'814.7
2018-Jul-08 12:59N 34°12' E 135°04'4 8.4
2018-Jul-08 12:30N 34°13' E 135°09'0 0.0
2018-Jul-08 12:00N 34°13' E 135°09'713.4
2018-Jul-08 11:30N 34°12' E 135°01'916.1
2018-Jul-08 10:56N 34°08' E 134°50'3 1.2
2018-Jul-08 08:38N 34°07' E 134°48'216.3
2018-Jul-08 08:30N 34°07' E 134°50'815.8
2018-Jul-08 08:00N 34°10' E 134°59'815.3
2018-Jul-08 07:30N 34°13' E 135°07'1 2.0
2018-Jul-08 07:00N 34°13' E 135°09'0 0.0
2018-Jul-08 06:30N 34°13' E 135°09'713.8
2018-Jul-08 06:00N 34°11' E 135°01'815.9
2018-Jul-08 05:30N 34°08' E 134°51'2 0.9
2018-Jul-08 02:51N 34°07' E 134°49'514.2
2018-Jul-08 02:30N 34°09' E 134°54'714.0
2018-Jul-08 02:00N 34°12' E 135°02'611.1
2018-Jul-08 01:31N 34°13' E 135°09'0 0.9
2018-Jul-08 01:01N 34°13' E 135°08'  
Track history (hours):
 
Tides and Currents Weather Stations Pressure Air Temp Water Temp Dewpoint Dewpoint Depression Visibility Wind Speed Wind Dir Waves Ship Positions

Ferry Tsurugi

Last reported at 2018-Jul-18 00:30 UTC. Time now 2018-Jul-18 00:54 UTC.
Position N 34°10' E 135°00'.

Length 108 m; draft 4 m.

Type: Passenger vessel. MMSI: 431500658.

Date/timePositionNaut miles runAvg speedWind from/ knotsBaromVisibWave heightAir tempDewpointWater temp
2018-Jul-18 00:30N 34°10' E 135°00'815.4
2018-Jul-18 00:00N 34°08' E 134°51'12 7.2
2018-Jul-17 22:17N 34°03' E 134°37'516.2
2018-Jul-17 21:59N 34°05' E 134°43'816.4
2018-Jul-17 21:30N 34°07' E 134°52'917.3
2018-Jul-17 21:00N 34°11' E 135°02'612.5
2018-Jul-17 20:30N 34°13' E 135°09'1 1.5
2018-Jul-17 20:00N 34°13' E 135°08'815.1
2018-Jul-17 19:30N 34°10' E 134°59'815.2
2018-Jul-17 19:00N 34°07' E 134°51'4 0.8
2018-Jul-17 14:03N 34°06' E 134°46'114.4
2018-Jul-17 14:00N 34°07' E 134°47'715.1
2018-Jul-17 13:31N 34°10' E 134°55'715.0
2018-Jul-17 13:01N 34°13' E 135°03'5 9.2
2018-Jul-17 12:31N 34°13' E 135°09'0 0.0
2018-Jul-17 12:01N 34°13' E 135°09'814.3
2018-Jul-17 11:29N 34°11' E 134°60'714.2
2018-Jul-17 11:00N 34°09' E 134°52'6 2.5
2018-Jul-17 08:44N 34°06' E 134°46'415.9
2018-Jul-17 08:30N 34°07' E 134°50'816.6
2018-Jul-17 08:00N 34°10' E 134°60'714.8
2018-Jul-17 07:30N 34°13' E 135°08'1 1.4
2018-Jul-17 07:00N 34°13' E 135°09'1 1.0
2018-Jul-17 06:30N 34°13' E 135°08'714.3
2018-Jul-17 06:00N 34°09' E 135°00'714.6
2018-Jul-17 05:30N 34°08' E 134°52'5 2.1
2018-Jul-17 03:01N 34°06' E 134°46'014.6
2018-Jul-17 03:01N 34°06' E 134°46'714.6
2018-Jul-17 02:31N 34°09' E 134°54'714.6
2018-Jul-17 02:01N 34°12' E 135°02'510.7
2018-Jul-17 01:30N 34°13' E 135°09'0 0.7
2018-Jul-17 01:01N 34°13' E 135°08'714.4
2018-Jul-17 00:30N 34°10' E 135°00'12 4.6
2018-Jul-16 21:52N 34°07' E 134°46'615.5
2018-Jul-16 21:30N 34°08' E 134°53'816.3
2018-Jul-16 21:00N 34°11' E 135°02'612.2
2018-Jul-16 20:30N 34°13' E 135°09'0 0.5
2018-Jul-16 20:00N 34°13' E 135°08'714.6
2018-Jul-16 19:30N 34°10' E 135°00'814.9
2018-Jul-16 18:58N 34°07' E 134°51'9 1.9
2018-Jul-16 14:24N 34°05' E 134°41'613.6
2018-Jul-16 13:59N 34°07' E 134°47'714.5
2018-Jul-16 13:30N 34°10' E 134°55'714.4
2018-Jul-16 13:00N 34°12' E 135°03'4 9.0
2018-Jul-16 12:30N 34°13' E 135°09'0 0.1
2018-Jul-16 12:01N 34°13' E 135°09'713.9
2018-Jul-16 11:30N 34°12' E 135°00'815.3
2018-Jul-16 10:59N 34°08' E 134°51'8 3.6
2018-Jul-16 08:53N 34°05' E 134°43'615.5
2018-Jul-16 08:30N 34°07' E 134°50'816.0
2018-Jul-16 08:00N 34°10' E 134°59'815.4
2018-Jul-16 07:30N 34°13' E 135°08'1 1.8
2018-Jul-16 07:00N 34°13' E 135°09'0 0.6
2018-Jul-16 06:31N 34°13' E 135°08'815.0
2018-Jul-16 06:00N 34°10' E 134°60'815.3
2018-Jul-16 05:30N 34°07' E 134°51'9 4.5
2018-Jul-16 03:24N 34°04' E 134°40'714.1
2018-Jul-16 02:55N 34°07' E 134°48'614.2
2018-Jul-16 02:30N 34°09' E 134°54'714.4
2018-Jul-16 02:00N 34°12' E 135°02'510.6
2018-Jul-16 01:30N 34°13' E 135°09'0 0.8
2018-Jul-16 01:00N 34°13' E 135°08'714.5
2018-Jul-16 00:30N 34°11' E 134°60'815.7
2018-Jul-15 23:59N 34°07' E 134°51'9 5.0
2018-Jul-15 22:10N 34°04' E 134°41'315.5
2018-Jul-15 21:59N 34°05' E 134°44'815.9
2018-Jul-15 21:30N 34°08' E 134°52'816.7
2018-Jul-15 21:00N 34°11' E 135°02'612.1
2018-Jul-15 20:30N 34°13' E 135°09'0 0.1
2018-Jul-15 20:01N 34°13' E 135°09'713.8
2018-Jul-15 19:30N 34°11' E 135°01'815.0
2018-Jul-15 19:00N 34°08' E 134°52'7 1.4
2018-Jul-15 14:13N 34°06' E 134°44'313.9
2018-Jul-15 13:59N 34°08' E 134°47'714.2
2018-Jul-15 13:30N 34°10' E 134°55'714.3
2018-Jul-15 13:00N 34°12' E 135°03'5 9.0
2018-Jul-15 12:30N 34°13' E 135°09'0 0.1
2018-Jul-15 12:01N 34°13' E 135°09'713.3
2018-Jul-15 11:30N 34°11' E 135°01'815.3
2018-Jul-15 11:00N 34°08' E 134°52'15 8.4
2018-Jul-15 09:16N 34°03' E 134°36'915.3
2018-Jul-15 08:41N 34°06' E 134°46'315.7
2018-Jul-15 08:30N 34°07' E 134°49'816.8
2018-Jul-15 08:01N 34°10' E 134°59'815.9
2018-Jul-15 07:31N 34°13' E 135°08'1 1.5
2018-Jul-15 06:59N 34°13' E 135°09'0 0.1
2018-Jul-15 06:30N 34°13' E 135°09'714.2
2018-Jul-15 06:00N 34°10' E 135°01'815.1
2018-Jul-15 05:30N 34°08' E 134°52'7 2.8
2018-Jul-15 03:09N 34°05' E 134°45'213.9
2018-Jul-15 03:00N 34°05' E 134°47'714.2
2018-Jul-15 02:30N 34°10' E 134°54'714.2
2018-Jul-15 02:00N 34°12' E 135°02'611.2
2018-Jul-15 01:30N 34°13' E 135°09'0 0.4
2018-Jul-15 01:00N 34°13' E 135°08'714.9
2018-Jul-15 00:30N 34°11' E 134°60'916.5
2018-Jul-14 23:59N 34°07' E 134°50'816.2
2018-Jul-14 23:30N 34°04' E 134°41'4 3.7
2018-Jul-14 22:25N 34°03' E 134°37'815.7
2018-Jul-14 21:56N 34°06' E 134°45'715.5
2018-Jul-14 21:30N 34°08' E 134°53'815.9
2018-Jul-14 21:01N 34°11' E 135°02'611.8
2018-Jul-14 20:30N 34°13' E 135°09'0 0.3
2018-Jul-14 20:01N 34°13' E 135°08'714.2
2018-Jul-14 19:30N 34°12' E 135°00'714.5
2018-Jul-14 19:00N 34°09' E 134°52'10 2.1
2018-Jul-14 14:27N 34°05' E 134°41'1314.2
2018-Jul-14 13:31N 34°11' E 134°56'713.5
2018-Jul-14 13:01N 34°12' E 135°04'4 7.9
2018-Jul-14 12:29N 34°13' E 135°09'0 0.1
2018-Jul-14 12:00N 34°13' E 135°09'713.3
2018-Jul-14 11:30N 34°12' E 135°01'815.7
2018-Jul-14 11:00N 34°09' E 134°52'6 2.7
2018-Jul-14 08:45N 34°06' E 134°46'414.9
2018-Jul-14 08:30N 34°07' E 134°50'816.5
2018-Jul-14 08:00N 34°11' E 134°58'815.4
2018-Jul-14 07:30N 34°13' E 135°07'1 2.0
2018-Jul-14 07:00N 34°13' E 135°09'0 0.7
2018-Jul-14 06:30N 34°13' E 135°08'815.0
2018-Jul-14 06:00N 34°10' E 134°60'713.8
2018-Jul-14 05:30N 34°08' E 134°52'6 2.4
2018-Jul-14 03:05N 34°05' E 134°45'214.3
2018-Jul-14 02:57N 34°06' E 134°47'614.3
2018-Jul-14 02:30N 34°09' E 134°55'714.9
2018-Jul-14 02:00N 34°12' E 135°03'510.0
2018-Jul-14 01:30N 34°13' E 135°09'0 0.4
2018-Jul-14 01:00N 34°13' E 135°08'714.8
2018-Jul-14 00:30N 34°11' E 134°60'816.2
2018-Jul-13 23:59N 34°07' E 134°50'7 3.5
2018-Jul-13 22:04N 34°05' E 134°43'216.4
2018-Jul-13 21:55N 34°06' E 134°45'715.9
2018-Jul-13 21:30N 34°08' E 134°53'816.0
2018-Jul-13 21:00N 34°11' E 135°02'611.8
2018-Jul-13 20:30N 34°13' E 135°09'0 0.4
2018-Jul-13 20:00N 34°13' E 135°08'713.8
2018-Jul-13 19:31N 34°11' E 135°01'715.0
2018-Jul-13 19:01N 34°08' E 134°52'4 0.7
2018-Jul-13 14:00N 34°07' E 134°48'714.4
2018-Jul-13 13:30N 34°11' E 134°55'713.4
2018-Jul-13 13:00N 34°12' E 135°03'5 9.0
2018-Jul-13 12:30N 34°13' E 135°09'0 0.0
2018-Jul-13 12:01N 34°13' E 135°09'713.3
2018-Jul-13 11:30N 34°12' E 135°01'816.0
2018-Jul-13 11:00N 34°08' E 134°52'6 2.5
2018-Jul-13 08:44N 34°06' E 134°46'314.3
2018-Jul-13 08:30N 34°08' E 134°49'816.7
2018-Jul-13 08:00N 34°11' E 134°58'816.2
2018-Jul-13 07:30N 34°13' E 135°08'1 1.4
2018-Jul-13 07:00N 34°13' E 135°09'1 1.0
2018-Jul-13 06:31N 34°13' E 135°08'714.5
2018-Jul-13 06:00N 34°10' E 134°60'713.9
2018-Jul-13 05:31N 34°07' E 134°52'6 2.6
2018-Jul-13 03:10N 34°05' E 134°45'416.0
2018-Jul-13 02:56N 34°06' E 134°49'716.1
2018-Jul-13 02:30N 34°09' E 134°57'816.6
2018-Jul-13 02:00N 34°12' E 135°06'2 4.1
2018-Jul-13 01:30N 34°13' E 135°09'0 0.3
2018-Jul-13 01:01N 34°13' E 135°08'714.0
2018-Jul-13 00:31N 34°10' E 135°01'816.5
2018-Jul-13 00:00N 34°07' E 134°51'8 4.0
2018-Jul-12 22:04N 34°05' E 134°42'215.7
2018-Jul-12 21:55N 34°05' E 134°45'615.9
2018-Jul-12 21:30N 34°08' E 134°52'816.0
2018-Jul-12 21:00N 34°11' E 135°01'612.7
2018-Jul-12 20:30N 34°13' E 135°09'0 0.9
2018-Jul-12 20:01N 34°13' E 135°08'714.0
2018-Jul-12 19:30N 34°10' E 135°00'714.2
2018-Jul-12 19:01N 34°08' E 134°52'1415.4
2018-Jul-12 18:08N 34°03' E 134°37'6 1.5
2018-Jul-12 14:18N 34°06' E 134°43'513.9
2018-Jul-12 13:58N 34°07' E 134°48'714.3
2018-Jul-12 13:30N 34°11' E 134°55'714.2
2018-Jul-12 13:00N 34°12' E 135°03'4 8.7
2018-Jul-12 12:30N 34°13' E 135°09'0 0.1
2018-Jul-12 12:00N 34°13' E 135°09'612.4
2018-Jul-12 11:31N 34°12' E 135°01'815.2
2018-Jul-12 11:01N 34°09' E 134°53'6 2.6
2018-Jul-12 08:41N 34°06' E 134°46'315.1
2018-Jul-12 08:30N 34°07' E 134°49'816.8
2018-Jul-12 08:00N 34°10' E 134°58'816.2
2018-Jul-12 07:30N 34°13' E 135°07'1 1.9
2018-Jul-12 07:00N 34°13' E 135°09'1 1.1
2018-Jul-12 06:30N 34°13' E 135°08'714.4
2018-Jul-12 06:00N 34°10' E 134°60'713.9
2018-Jul-12 05:30N 34°07' E 134°52'7 2.7
2018-Jul-12 03:06N 34°05' E 134°45'213.9
2018-Jul-12 02:58N 34°05' E 134°47'714.3
2018-Jul-12 02:30N 34°08' E 134°55'815.2
2018-Jul-12 02:00N 34°11' E 135°03'510.5
2018-Jul-12 01:31N 34°13' E 135°09'0 0.7
2018-Jul-12 01:00N 34°13' E 135°08'714.9
2018-Jul-12 00:30N 34°10' E 135°00'916.4
2018-Jul-11 23:57N 34°07' E 134°50'3 1.5
2018-Jul-11 21:53N 34°06' E 134°46'715.6
2018-Jul-11 21:27N 34°09' E 134°54'715.6
2018-Jul-11 21:00N 34°11' E 135°01'612.6
2018-Jul-11 20:30N 34°13' E 135°09'1 2.9
2018-Jul-11 20:00N 34°13' E 135°07'714.5
2018-Jul-11 19:30N 34°09' E 134°60'814.5
2018-Jul-11 18:57N 34°07' E 134°50'2 0.4
2018-Jul-11 13:59N 34°07' E 134°48'714.1
2018-Jul-11 13:30N 34°09' E 134°55'714.2
2018-Jul-11 13:00N 34°12' E 135°03'5 9.0
2018-Jul-11 12:30N 34°13' E 135°09'0 0.6
2018-Jul-11 12:01N 34°13' E 135°08'714.6
2018-Jul-11 11:31N 34°10' E 135°00'815.7
2018-Jul-11 11:00N 34°06' E 134°52'5 2.2
2018-Jul-11 08:42N 34°07' E 134°46'314.9
2018-Jul-11 08:30N 34°08' E 134°50'815.5
2018-Jul-11 08:00N 34°12' E 134°58'815.6
2018-Jul-11 07:30N 34°13' E 135°08'1 1.8
2018-Jul-11 07:00N 34°13' E 135°09'1 1.2
2018-Jul-11 06:30N 34°13' E 135°08'714.4
2018-Jul-11 06:00N 34°09' E 135°00'814.9
2018-Jul-11 05:29N 34°05' E 134°52'4 1.7
2018-Jul-11 03:00N 34°05' E 134°47'714.2
2018-Jul-11 02:30N 34°06' E 134°55'815.1
2018-Jul-11 02:00N 34°11' E 135°02'510.8
2018-Jul-11 01:30N 34°13' E 135°09'1 1.2
2018-Jul-11 01:01N 34°13' E 135°08'714.8
2018-Jul-11 00:30N 34°09' E 135°00'1015.5
2018-Jul-10 23:52N 34°05' E 134°49'4 1.7
2018-Jul-10 21:49N 34°07' E 134°46'516.5
2018-Jul-10 21:30N 34°08' E 134°52'816.2
2018-Jul-10 21:00N 34°11' E 135°01'612.5
2018-Jul-10 20:30N 34°13' E 135°09'1 1.7
2018-Jul-10 20:00N 34°13' E 135°08'714.5
2018-Jul-10 19:30N 34°11' E 134°59'915.1
2018-Jul-10 18:54N 34°06' E 134°50'6 1.3
2018-Jul-10 14:17N 34°05' E 134°43'414.0
2018-Jul-10 14:00N 34°06' E 134°48'714.4
2018-Jul-10 13:30N 34°09' E 134°55'714.6
2018-Jul-10 13:00N 34°12' E 135°03'4 8.7
2018-Jul-10 12:30N 34°13' E 135°09'0 0.0
2018-Jul-10 12:00N 34°13' E 135°09'612.9
2018-Jul-10 11:30N 34°10' E 135°02'916.5
2018-Jul-10 10:58N 34°05' E 134°53'8 3.7
2018-Jul-10 08:55N 34°05' E 134°43'715.3
2018-Jul-10 08:26N 34°07' E 134°52'715.2
2018-Jul-10 08:00N 34°11' E 134°59'815.2
2018-Jul-10 07:30N 34°13' E 135°08'1 1.5
2018-Jul-10 07:00N 34°13' E 135°09'0 0.9
2018-Jul-10 06:31N 34°13' E 135°08'714.5
2018-Jul-10 06:00N 34°11' E 134°60'714.1
2018-Jul-10 05:30N 34°07' E 134°52'4 1.5
2018-Jul-10 02:55N 34°07' E 134°48'613.9
2018-Jul-10 02:30N 34°10' E 134°54'714.5
2018-Jul-10 02:00N 34°12' E 135°03'510.3
2018-Jul-10 01:30N 34°13' E 135°09'1 1.8
2018-Jul-10 01:00N 34°13' E 135°08'815.5
2018-Jul-10 00:30N 34°10' E 134°59'815.7
2018-Jul-09 23:59N 34°06' E 134°50'5 2.8
2018-Jul-09 22:03N 34°06' E 134°44'316.1
2018-Jul-09 21:50N 34°06' E 134°48'515.9
2018-Jul-09 21:29N 34°08' E 134°54'815.6
2018-Jul-09 21:00N 34°12' E 135°02'611.5
2018-Jul-09 20:30N 34°13' E 135°09'1 1.7
2018-Jul-09 20:01N 34°13' E 135°08'714.4
2018-Jul-09 19:31N 34°10' E 134°60'915.0
2018-Jul-09 18:55N 34°06' E 134°50'3 0.7
2018-Jul-09 14:07N 34°06' E 134°46'213.8
2018-Jul-09 13:58N 34°07' E 134°49'613.6
2018-Jul-09 13:30N 34°09' E 134°56'714.6
2018-Jul-09 13:01N 34°12' E 135°04'4 8.7
2018-Jul-09 12:30N 34°13' E 135°09'0 0.0
2018-Jul-09 12:00N 34°13' E 135°09'611.2
2018-Jul-09 11:31N 34°11' E 135°02'816.3
2018-Jul-09 10:59N 34°08' E 134°53'8 3.6
2018-Jul-09 08:51N 34°06' E 134°44'515.1
2018-Jul-09 08:30N 34°08' E 134°50'815.6
2018-Jul-09 08:00N 34°11' E 134°58'815.2
2018-Jul-09 07:31N 34°13' E 135°07'1 2.3
2018-Jul-09 07:00N 34°13' E 135°09'0 0.7
2018-Jul-09 06:31N 34°13' E 135°08'815.0
2018-Jul-09 06:00N 34°11' E 134°59'814.9
2018-Jul-09 05:29N 34°08' E 134°51'3 1.1
2018-Jul-09 02:55N 34°07' E 134°48'614.5
2018-Jul-09 02:30N 34°09' E 134°54'714.6
2018-Jul-09 02:00N 34°11' E 135°03'510.5
2018-Jul-09 01:30N 34°13' E 135°09'0 0.5
2018-Jul-09 01:00N 34°13' E 135°08'814.9
2018-Jul-09 00:30N 34°10' E 134°60'915.9
2018-Jul-08 23:57N 34°07' E 134°50'3 1.6
2018-Jul-08 21:51N 34°06' E 134°46'616.3
2018-Jul-08 21:29N 34°08' E 134°53'816.0
2018-Jul-08 21:01N 34°11' E 135°01'612.7
2018-Jul-08 20:30N 34°13' E 135°09'0 0.4
2018-Jul-08 20:00N 34°13' E 135°08'714.2
2018-Jul-08 19:30N 34°12' E 134°60'815.8
2018-Jul-08 18:58N 34°08' E 134°50'3 0.6
2018-Jul-08 13:58N 34°07' E 134°48'714.5
2018-Jul-08 13:30N 34°09' E 134°55'814.7
2018-Jul-08 12:59N 34°12' E 135°04'4 8.4
2018-Jul-08 12:30N 34°13' E 135°09'0 0.0
2018-Jul-08 12:00N 34°13' E 135°09'713.4
2018-Jul-08 11:30N 34°12' E 135°01'916.1
2018-Jul-08 10:56N 34°08' E 134°50'3 1.2
2018-Jul-08 08:38N 34°07' E 134°48'216.3
2018-Jul-08 08:30N 34°07' E 134°50'815.8
2018-Jul-08 08:00N 34°10' E 134°59'815.3
2018-Jul-08 07:30N 34°13' E 135°07'1 2.0
2018-Jul-08 07:00N 34°13' E 135°09'0 0.0
2018-Jul-08 06:30N 34°13' E 135°09'713.8
2018-Jul-08 06:00N 34°11' E 135°01'815.9
2018-Jul-08 05:30N 34°08' E 134°51'2 0.9
2018-Jul-08 02:51N 34°07' E 134°49'514.2
2018-Jul-08 02:30N 34°09' E 134°54'714.0
2018-Jul-08 02:00N 34°12' E 135°02'611.1
2018-Jul-08 01:31N 34°13' E 135°09'0 0.9
2018-Jul-08 01:01N 34°13' E 135°08'  

Dump ship's entire track history